Time;durP1;ratioP1;P1;durP2;ratioP2;P2;SDS_P1;SDS_P2;PMS_P1;PMS_P2;Temp;Humidity;BMP_temperature;BMP_pressure;BME280_temperature;BME280_humidity;BME280_pressure;Samples;Min_cycle;Max_cycle;Signal;HPM_P1;HPM_P2
2022/11/30 08:47:48;;;;;;;20.73;7.77;;;8.40;99.90;;;;;;4234743;27;20227;-75
2022/11/30 08:50:15;;;;;;;24.30;7.67;;;8.30;99.90;;;;;;4880677;29;20211;-72
2022/11/30 08:52:41;;;;;;;18.70;7.60;;;8.40;99.90;;;;;;4880914;29;20257;-72
2022/11/30 08:55:09;;;;;;;23.40;7.97;;;8.40;99.90;;;;;;4880656;29;20239;-72
2022/11/30 08:57:36;;;;;;;24.83;8.17;;;8.20;99.90;;;;;;4880644;29;20233;-75
2022/11/30 09:00:04;;;;;;;23.70;8.17;;;8.20;99.90;;;;;;4877294;29;20207;-72
2022/11/30 09:02:31;;;;;;;22.73;7.73;;;8.30;99.90;;;;;;4877113;29;20242;-71
2022/11/30 09:04:59;;;;;;;22.17;8.13;;;8.40;99.90;;;;;;4879550;29;20219;-71
2022/11/30 09:07:26;;;;;;;28.87;9.40;;;8.30;99.90;;;;;;4880420;29;20684;-73
2022/11/30 09:09:53;;;;;;;24.73;8.57;;;8.50;99.90;;;;;;4880386;29;20211;-70
2022/11/30 09:12:19;;;;;;;25.13;7.53;;;8.60;99.90;;;;;;4880344;29;20235;-71
2022/11/30 09:14:47;;;;;;;21.73;7.53;;;8.50;99.90;;;;;;4880292;29;20211;-73
2022/11/30 09:17:14;;;;;;;27.50;8.37;;;8.50;99.90;;;;;;4880525;29;20211;-74
2022/11/30 09:19:41;;;;;;;26.30;7.50;;;8.60;99.90;;;;;;4875559;29;20246;-74
2022/11/30 09:22:10;;;;;;;28.17;9.03;;;8.80;99.90;;;;;;4872933;29;20636;-71
2022/11/30 09:24:37;;;;;;;20.73;7.53;;;8.90;99.90;;;;;;4871043;29;20378;-71
2022/11/30 09:27:04;;;;;;;26.53;8.23;;;9.00;99.90;;;;;;4871865;29;20211;-71
2022/11/30 09:29:30;;;;;;;22.93;7.80;;;9.10;99.90;;;;;;4871520;29;20595;-71
2022/11/30 09:31:57;;;;;;;26.10;7.30;;;9.00;99.90;;;;;;4868284;29;20219;-71
2022/11/30 09:34:24;;;;;;;25.17;7.50;;;8.90;99.90;;;;;;4870127;29;20207;-71
2022/11/30 09:36:51;;;;;;;28.53;7.67;;;8.80;99.90;;;;;;4879343;29;20214;-71
2022/11/30 09:39:19;;;;;;;25.23;8.33;;;8.80;99.90;;;;;;4873055;29;20242;-71
2022/11/30 09:42:03;;;;;;;27.03;7.57;;;8.80;99.90;;;;;;4876328;29;20696;-72
2022/11/30 09:44:43;;;;;;;24.13;7.53;;;8.80;99.90;;;;;;4870714;29;20258;-71
2022/11/30 09:47:28;;;;;;;24.27;6.80;;;8.80;99.90;;;;;;4874605;29;20708;-71
2022/11/30 09:49:55;;;;;;;18.53;7.00;;;8.70;99.90;;;;;;4878891;29;20217;-71
2022/11/30 09:52:32;;;;;;;27.27;7.97;;;8.60;99.90;;;;;;4879202;29;20235;-70
2022/11/30 09:55:05;;;;;;;22.80;8.00;;;8.70;99.90;;;;;;4879191;29;20207;-71
2022/11/30 09:57:41;;;;;;;22.60;7.40;;;8.80;99.90;;;;;;4879148;29;20651;-71
2022/11/30 10:00:14;;;;;;;21.53;6.93;;;8.80;99.90;;;;;;4879173;29;20203;-71
2022/11/30 10:02:41;;;;;;;22.53;7.50;;;8.80;99.90;;;;;;4878666;29;20233;-71
2022/11/30 10:05:13;;;;;;;24.50;8.20;;;9.10;99.90;;;;;;4878247;29;20301;-72
2022/11/30 10:07:58;;;;;;;22.13;7.40;;;9.20;99.90;;;;;;4877801;29;20202;-72
2022/11/30 10:10:35;;;;;;;22.80;8.17;;;9.20;99.90;;;;;;4879971;29;20213;-72
2022/11/30 10:13:14;;;;;;;20.00;7.23;;;9.20;99.90;;;;;;4882663;29;20494;-72
2022/11/30 10:15:53;;;;;;;21.70;7.57;;;9.10;99.90;;;;;;4877807;29;20215;-72
2022/11/30 10:18:26;;;;;;;27.97;7.53;;;9.10;99.90;;;;;;4877497;29;20233;-71
2022/11/30 10:21:02;;;;;;;25.67;7.60;;;9.10;99.90;;;;;;4877391;29;20659;-71
2022/11/30 10:23:52;;;;;;;20.07;6.70;;;9.10;99.90;;;;;;4877187;29;20702;-73
2022/11/30 10:26:26;;;;;;;25.67;7.30;;;9.20;99.90;;;;;;4877795;29;20211;-71
2022/11/30 10:28:54;;;;;;;24.37;8.50;;;9.30;99.90;;;;;;4879112;29;20215;-71
2022/11/30 10:31:28;;;;;;;23.73;8.37;;;9.50;99.90;;;;;;4878699;29;20213;-74
2022/11/30 10:34:02;;;;;;;18.70;6.83;;;9.60;99.90;;;;;;4878652;29;20725;-71
2022/11/30 10:36:35;;;;;;;19.93;6.60;;;9.50;99.90;;;;;;4879318;29;20215;-71
2022/11/30 10:39:06;;;;;;;21.00;7.63;;;9.40;99.90;;;;;;4879663;29;20241;-70
2022/11/30 10:41:40;;;;;;;25.23;8.50;;;9.40;99.90;;;;;;4878991;29;20210;-72
2022/11/30 10:44:15;;;;;;;20.13;7.43;;;9.60;99.90;;;;;;4878968;29;20663;-72
2022/11/30 10:46:48;;;;;;;19.80;6.97;;;9.90;99.90;;;;;;4879025;29;20229;-70
2022/11/30 10:49:19;;;;;;;25.70;7.47;;;10.00;99.90;;;;;;4878893;29;20221;-71
2022/11/30 10:51:50;;;;;;;20.07;7.13;;;10.10;99.90;;;;;;4878403;29;20219;-73
2022/11/30 10:54:20;;;;;;;20.00;7.67;;;10.00;99.90;;;;;;4878831;29;20231;-74
2022/11/30 10:56:49;;;;;;;24.83;8.57;;;10.20;99.90;;;;;;4879138;29;20207;-74
2022/11/30 10:59:22;;;;;;;19.83;7.67;;;10.30;99.90;;;;;;4878805;29;20276;-71
2022/11/30 11:01:51;;;;;;;20.37;7.83;;;9.80;99.90;;;;;;4878563;29;20750;-71
2022/11/30 11:04:21;;;;;;;25.57;8.10;;;9.60;99.90;;;;;;4879744;29;20235;-73
2022/11/30 11:06:51;;;;;;;28.37;8.77;;;9.60;99.90;;;;;;4882716;29;20638;-73
2022/11/30 11:09:36;;;;;;;21.10;8.00;;;9.90;99.90;;;;;;4882796;29;20671;-72
2022/11/30 11:12:06;;;;;;;24.43;8.23;;;10.10;99.90;;;;;;4882413;29;20301;-74
2022/11/30 11:14:34;;;;;;;18.90;8.03;;;10.40;99.90;;;;;;4882596;29;20670;-71
2022/11/30 11:17:03;;;;;;;22.23;8.70;;;10.40;99.90;;;;;;4882511;29;20215;-71
2022/11/30 11:19:35;;;;;;;25.53;8.33;;;10.40;99.90;;;;;;4881993;29;20235;-71
2022/11/30 11:22:06;;;;;;;21.57;8.53;;;10.30;99.90;;;;;;4882357;29;20211;-71
2022/11/30 11:24:35;;;;;;;23.37;9.97;;;10.30;99.90;;;;;;4882508;29;20307;-71
2022/11/30 11:27:01;;;;;;;23.17;8.83;;;10.30;99.90;;;;;;4882280;29;20222;-72
2022/11/30 11:29:32;;;;;;;24.97;9.20;;;10.30;99.90;;;;;;4882045;29;20217;-73
2022/11/30 11:32:19;;;;;;;26.37;10.17;;;10.30;99.90;;;;;;4881904;29;20311;-75
2022/11/30 11:34:46;;;;;;;30.80;11.47;;;10.30;99.90;;;;;;4882276;29;20298;-73
2022/11/30 11:37:19;;;;;;;24.60;10.80;;;10.20;99.90;;;;;;4881772;29;20663;-73
2022/11/30 11:39:56;;;;;;;34.57;11.07;;;10.10;99.90;;;;;;4881747;29;20736;-73
2022/11/30 11:42:24;;;;;;;30.10;10.50;;;10.00;99.90;;;;;;4881775;29;20226;-71
2022/11/30 11:44:55;;;;;;;28.07;10.23;;;9.90;99.90;;;;;;4881897;29;20207;-71
2022/11/30 11:47:26;;;;;;;28.63;10.50;;;9.80;99.90;;;;;;4881652;29;20310;-71
2022/11/30 11:50:05;;;;;;;23.83;9.47;;;9.90;99.90;;;;;;4881632;29;20215;-72
2022/11/30 11:52:32;;;;;;;27.80;10.43;;;9.90;99.90;;;;;;4881689;29;20241;-72
2022/11/30 11:55:04;;;;;;;23.90;9.20;;;9.80;99.90;;;;;;4881621;29;20689;-71
2022/11/30 11:57:40;;;;;;;24.03;10.80;;;9.70;99.90;;;;;;4882028;29;20219;-72
2022/11/30 12:00:16;;;;;;;22.87;8.43;;;9.50;99.90;;;;;;4881569;29;20242;-71
2022/11/30 12:02:51;;;;;;;22.07;9.03;;;9.50;99.90;;;;;;4881433;29;20237;-72
2022/11/30 12:05:24;;;;;;;27.20;9.30;;;9.90;99.90;;;;;;4881644;29;20221;-71
2022/11/30 12:08:02;;;;;;;20.43;8.80;;;10.00;99.90;;;;;;4881728;29;20215;-72
2022/11/30 12:10:35;;;;;;;22.70;8.77;;;10.10;99.90;;;;;;4881519;29;20218;-71
2022/11/30 12:13:08;;;;;;;23.57;9.43;;;10.00;99.90;;;;;;4880474;29;20322;-73
2022/11/30 12:15:49;;;;;;;28.20;10.10;;;10.00;99.90;;;;;;4879693;29;20245;-71
2022/11/30 12:18:21;;;;;;;20.30;8.10;;;10.00;99.90;;;;;;4880126;29;20238;-70
2022/11/30 12:20:55;;;;;;;23.00;8.40;;;10.00;99.90;;;;;;4880305;29;20578;-71
2022/11/30 12:23:45;;;;;;;20.63;8.17;;;10.00;99.90;;;;;;4879998;29;20438;-71
2022/11/30 12:26:20;;;;;;;22.20;8.73;;;9.90;99.90;;;;;;4879032;29;20207;-72
2022/11/30 12:29:08;;;;;;;21.93;7.73;;;9.80;99.90;;;;;;4879777;29;20202;-72
2022/11/30 12:31:49;;;;;;;21.30;8.97;;;9.90;99.90;;;;;;4870961;29;20211;-71
2022/11/30 12:34:21;;;;;;;25.00;8.27;;;9.90;99.90;;;;;;4880056;29;20227;-72
2022/11/30 12:36:59;;;;;;;22.67;8.07;;;10.10;99.90;;;;;;4880554;29;20571;-72
2022/11/30 12:39:36;;;;;;;21.03;7.87;;;10.30;99.90;;;;;;4880626;29;20935;-73
2022/11/30 12:42:10;;;;;;;19.00;8.73;;;10.40;99.90;;;;;;4880711;29;20218;-72
2022/11/30 12:44:52;;;;;;;21.13;8.43;;;10.30;99.90;;;;;;4880732;29;20211;-72
2022/11/30 12:47:39;;;;;;;19.60;8.30;;;10.30;99.90;;;;;;4880961;29;20233;-72
2022/11/30 12:50:21;;;;;;;20.63;8.37;;;10.30;99.90;;;;;;4880999;29;20217;-71
2022/11/30 12:52:58;;;;;;;20.77;8.73;;;10.30;99.90;;;;;;4880594;29;20227;-72
2022/11/30 12:55:33;;;;;;;21.23;9.07;;;9.90;99.90;;;;;;4880841;29;20211;-70
2022/11/30 12:58:11;;;;;;;23.67;8.73;;;9.90;99.90;;;;;;4880693;29;20211;-71
2022/11/30 13:00:50;;;;;;;20.40;8.30;;;10.00;99.90;;;;;;4880220;29;20245;-70
2022/11/30 13:03:39;;;;;;;20.30;8.33;;;9.90;99.90;;;;;;4880144;29;20233;-71
2022/11/30 13:06:09;;;;;;;21.93;8.40;;;9.90;99.90;;;;;;4880297;29;20211;-73
2022/11/30 13:08:50;;;;;;;18.07;8.07;;;9.70;99.90;;;;;;4880420;29;20221;-71
2022/11/30 13:11:21;;;;;;;20.33;8.07;;;9.70;99.90;;;;;;4874580;29;20207;-70
2022/11/30 13:13:52;;;;;;;18.63;7.57;;;9.50;99.90;;;;;;4874628;29;20266;-70
2022/11/30 13:16:20;;;;;;;17.40;7.07;;;9.50;99.90;;;;;;4882081;29;20208;-71
2022/11/30 13:18:49;;;;;;;16.27;7.50;;;9.60;99.90;;;;;;4878779;29;20211;-72
2022/11/30 13:21:24;;;;;;;17.50;7.97;;;9.90;99.90;;;;;;4878040;29;20211;-75
2022/11/30 13:23:57;;;;;;;16.00;7.07;;;9.80;99.90;;;;;;4878512;29;20234;-75
2022/11/30 13:26:30;;;;;;;17.07;7.13;;;9.80;99.90;;;;;;4878947;29;20211;-73
2022/11/30 13:29:26;;;;;;;15.83;6.93;;;10.00;99.90;;;;;;4877622;29;20712;-73
2022/11/30 13:32:03;;;;;;;16.43;7.33;;;10.00;99.90;;;;;;4878368;29;20558;-73
2022/11/30 13:34:32;;;;;;;14.23;7.20;;;9.80;99.90;;;;;;4878750;29;20574;-75
2022/11/30 13:37:04;;;;;;;20.27;7.60;;;10.00;99.90;;;;;;4878030;29;20259;-72
2022/11/30 13:39:44;;;;;;;19.40;7.30;;;10.20;99.90;;;;;;4878039;29;20235;-74
2022/11/30 13:42:33;;;;;;;15.57;6.90;;;10.20;99.90;;;;;;4859616;29;20754;-75
2022/11/30 13:45:16;;;;;;;20.60;7.10;;;10.10;99.90;;;;;;4877785;29;20257;-75
2022/11/30 13:47:46;;;;;;;17.80;7.30;;;10.10;99.90;;;;;;4876866;29;20211;-74
2022/11/30 13:50:24;;;;;;;14.20;6.43;;;10.30;99.90;;;;;;4878071;29;20294;-76
2022/11/30 13:53:25;;;;;;;16.10;7.00;;;10.10;99.90;;;;;;4878448;29;20257;-72
2022/11/30 13:56:20;;;;;;;14.70;6.63;;;10.10;99.90;;;;;;4839335;29;20611;-73
2022/11/30 13:59:21;;;;;;;14.33;6.20;;;9.90;99.90;;;;;;4838270;29;20216;-73
2022/11/30 14:01:48;;;;;;;19.33;7.00;;;9.70;99.90;;;;;;4873150;29;20231;-75
2022/11/30 14:04:34;;;;;;;16.57;6.53;;;9.70;99.90;;;;;;4877752;29;20227;-75
2022/11/30 14:07:02;;;;;;;14.73;6.37;;;9.70;99.90;;;;;;4863379;29;20240;-73
2022/11/30 14:09:54;;;;;;;19.13;7.33;;;9.70;99.90;;;;;;4878169;29;20215;-73
2022/11/30 14:12:49;;;;;;;17.60;7.17;;;9.80;99.90;;;;;;4859660;29;20712;-72
2022/11/30 14:15:49;;;;;;;16.93;6.90;;;10.10;99.90;;;;;;4859282;29;20583;-74
2022/11/30 14:18:25;;;;;;;16.57;7.07;;;10.20;99.90;;;;;;4860717;29;20308;-74
2022/11/30 14:20:57;;;;;;;16.70;7.20;;;9.90;99.90;;;;;;4877369;29;20764;-74
2022/11/30 14:28:51;;;;;;;15.83;6.87;;;10.20;99.90;;;;;;2710687;23;20256;-76
2022/11/30 14:31:22;;;;;;;17.70;7.27;;;10.00;99.90;;;;;;4871928;29;20630;-76
2022/11/30 14:33:53;;;;;;;17.87;7.93;;;9.80;99.90;;;;;;4868411;29;20539;-78
2022/11/30 14:36:22;;;;;;;20.47;8.83;;;9.70;99.90;;;;;;4877653;29;20572;-77
2022/11/30 14:38:49;;;;;;;18.27;7.83;;;9.80;99.90;;;;;;4876688;29;20662;-77
2022/11/30 14:41:21;;;;;;;20.43;8.50;;;9.70;99.90;;;;;;4876322;29;20241;-74
2022/11/30 14:44:03;;;;;;;17.23;7.50;;;9.40;99.90;;;;;;4877523;29;20243;-76
2022/11/30 14:46:32;;;;;;;18.40;8.33;;;9.50;99.90;;;;;;4878041;29;20226;-74
2022/11/30 14:49:06;;;;;;;20.23;7.90;;;9.60;99.90;;;;;;4878801;29;20343;-77
2022/11/30 14:51:34;;;;;;;19.13;7.27;;;9.60;99.90;;;;;;4878553;29;20305;-74
2022/11/30 14:54:08;;;;;;;21.10;8.23;;;9.60;99.90;;;;;;4878416;29;20223;-74
2022/11/30 14:56:40;;;;;;;20.13;8.57;;;9.60;99.90;;;;;;4878164;29;20701;-74
2022/11/30 14:59:23;;;;;;;20.00;8.20;;;9.50;99.90;;;;;;4878666;29;20685;-77
2022/11/30 15:01:56;;;;;;;22.13;8.40;;;9.40;99.90;;;;;;4878651;29;20210;-75
2022/11/30 15:04:26;;;;;;;22.57;8.50;;;9.30;99.90;;;;;;4878614;29;20207;-75
2022/11/30 15:06:53;;;;;;;19.83;8.93;;;9.40;99.90;;;;;;4878328;29;20231;-76
2022/11/30 15:09:24;;;;;;;22.80;8.93;;;9.40;99.90;;;;;;4877710;29;20219;-78
2022/11/30 15:11:52;;;;;;;21.97;8.73;;;9.40;99.90;;;;;;4878776;29;20207;-78
2022/11/30 15:14:20;;;;;;;23.53;9.13;;;9.40;99.90;;;;;;4878784;29;20215;-77
2022/11/30 15:16:48;;;;;;;29.60;10.17;;;9.40;99.90;;;;;;4878666;29;20237;-77
2022/11/30 15:19:21;;;;;;;23.23;10.77;;;9.40;99.90;;;;;;4878951;29;20219;-78
2022/11/30 15:21:49;;;;;;;31.10;12.90;;;9.50;99.90;;;;;;4878811;29;20208;-76
2022/11/30 15:24:16;;;;;;;34.53;12.97;;;9.50;99.90;;;;;;4878806;29;20211;-77
2022/11/30 15:26:51;;;;;;;31.37;11.83;;;9.40;99.90;;;;;;4878329;29;20227;-77
2022/11/30 15:29:26;;;;;;;27.20;11.13;;;9.30;99.90;;;;;;4878655;29;20314;-77
2022/11/30 15:31:56;;;;;;;31.10;10.73;;;9.20;99.90;;;;;;4879381;29;20227;-74
2022/11/30 15:34:30;;;;;;;27.20;11.27;;;9.20;99.90;;;;;;4879156;29;20300;-74
2022/11/30 15:36:59;;;;;;;24.30;9.20;;;9.30;99.90;;;;;;4878756;29;20234;-77
2022/11/30 15:39:27;;;;;;;22.47;9.07;;;9.30;99.90;;;;;;4878832;29;20215;-77
2022/11/30 15:41:56;;;;;;;18.70;7.83;;;9.30;99.90;;;;;;4878675;29;20306;-77
2022/11/30 15:44:37;;;;;;;24.90;9.53;;;9.30;99.90;;;;;;4878825;29;20222;-76
2022/11/30 15:47:06;;;;;;;21.07;8.37;;;9.30;99.90;;;;;;4878451;29;20234;-76
2022/11/30 15:49:35;;;;;;;25.63;9.13;;;9.30;99.90;;;;;;4878796;29;20578;-77
2022/11/30 15:52:07;;;;;;;23.67;9.27;;;9.20;99.90;;;;;;4881449;29;20212;-77
2022/11/30 15:54:48;;;;;;;22.37;9.80;;;9.10;99.90;;;;;;4881825;29;20647;-77
2022/11/30 15:57:16;;;;;;;20.17;8.43;;;9.10;99.90;;;;;;4881796;29;20714;-76
2022/11/30 15:59:44;;;;;;;22.63;9.80;;;9.00;99.90;;;;;;4881832;29;20235;-76
2022/11/30 16:02:26;;;;;;;22.57;8.30;;;8.90;99.90;;;;;;4881627;29;20214;-77
2022/11/30 16:05:22;;;;;;;23.40;9.13;;;8.80;99.90;;;;;;4881684;29;20211;-76
2022/11/30 16:07:52;;;;;;;21.57;9.43;;;8.70;99.90;;;;;;4881651;29;20719;-76
2022/11/30 16:10:22;;;;;;;23.27;9.67;;;8.70;99.90;;;;;;4881834;29;20247;-76
2022/11/30 16:12:50;;;;;;;25.67;9.37;;;8.60;99.90;;;;;;4881585;29;20211;-76
2022/11/30 16:15:21;;;;;;;24.60;10.27;;;8.70;99.90;;;;;;4881469;29;20211;-77
2022/11/30 16:17:48;;;;;;;27.80;9.73;;;8.80;99.90;;;;;;4880753;29;20211;-76
2022/11/30 16:20:16;;;;;;;25.73;10.13;;;8.70;99.90;;;;;;4880914;29;20674;-77
2022/11/30 16:22:44;;;;;;;24.67;10.17;;;8.50;99.90;;;;;;4881073;29;20211;-76
2022/11/30 16:25:13;;;;;;;31.00;9.90;;;8.30;99.90;;;;;;4881103;29;20211;-76
2022/11/30 16:27:40;;;;;;;31.00;11.30;;;8.30;99.90;;;;;;4881464;29;20737;-76
2022/11/30 16:30:09;;;;;;;26.63;10.20;;;8.30;99.90;;;;;;4881227;29;20219;-76
2022/11/30 16:32:37;;;;;;;24.10;10.27;;;8.30;99.90;;;;;;4881348;29;20214;-76
2022/11/30 16:35:16;;;;;;;23.30;9.13;;;8.40;99.90;;;;;;4881434;29;20218;-76
2022/11/30 16:37:43;;;;;;;26.33;10.43;;;8.40;99.90;;;;;;4881181;29;20321;-77
2022/11/30 16:40:12;;;;;;;23.10;9.37;;;8.40;99.90;;;;;;4881184;29;20238;-76
2022/11/30 16:42:39;;;;;;;30.67;10.77;;;8.40;99.90;;;;;;4881188;29;20215;-76
2022/11/30 16:45:11;;;;;;;30.23;10.43;;;8.40;99.90;;;;;;4881000;29;20221;-76
2022/11/30 16:47:40;;;;;;;24.00;10.07;;;8.40;99.90;;;;;;4880919;29;20710;-76
2022/11/30 16:50:09;;;;;;;22.70;9.50;;;8.50;99.90;;;;;;4880958;29;20222;-75
2022/11/30 16:52:35;;;;;;;31.43;10.87;;;8.50;99.90;;;;;;4881084;29;20667;-75
2022/11/30 16:55:02;;;;;;;23.77;10.57;;;8.50;99.90;;;;;;4880989;29;20238;-75
2022/11/30 16:57:29;;;;;;;29.37;11.63;;;8.50;99.90;;;;;;4880813;29;20263;-75
2022/11/30 16:59:56;;;;;;;26.27;10.10;;;8.60;99.90;;;;;;4880579;29;20227;-75
2022/11/30 17:02:23;;;;;;;25.63;10.40;;;8.70;99.90;;;;;;4880239;29;20215;-76
2022/11/30 17:04:51;;;;;;;29.57;11.73;;;8.80;99.90;;;;;;4880666;29;20219;-75
2022/11/30 17:07:18;;;;;;;33.27;12.23;;;8.90;99.90;;;;;;4880977;29;20235;-77
2022/11/30 17:09:45;;;;;;;26.03;10.77;;;8.90;99.90;;;;;;4880720;29;20302;-77
2022/11/30 17:12:12;;;;;;;29.53;10.63;;;8.90;99.90;;;;;;4880728;29;20219;-77
2022/11/30 17:14:38;;;;;;;28.60;10.73;;;9.00;99.90;;;;;;4880652;29;20650;-77
2022/11/30 17:17:06;;;;;;;28.20;10.93;;;9.00;99.90;;;;;;4880214;29;20706;-76
2022/11/30 17:19:33;;;;;;;33.60;11.13;;;9.10;99.90;;;;;;4880625;29;20283;-76
2022/11/30 17:22:02;;;;;;;29.57;10.57;;;9.00;99.90;;;;;;4880370;29;20338;-75
2022/11/30 17:24:29;;;;;;;31.63;11.47;;;8.90;99.90;;;;;;4880440;29;20211;-76
2022/11/30 17:26:56;;;;;;;30.83;11.00;;;9.00;99.90;;;;;;4880428;29;20242;-75
2022/11/30 17:29:22;;;;;;;35.33;11.57;;;9.00;99.90;;;;;;4880101;29;20241;-75
2022/11/30 17:31:49;;;;;;;32.50;10.83;;;9.00;99.90;;;;;;4879823;29;20211;-75
2022/11/30 17:34:16;;;;;;;34.13;11.67;;;9.10;99.90;;;;;;4879663;29;20207;-75
2022/11/30 17:36:43;;;;;;;34.83;12.13;;;9.10;99.90;;;;;;4880052;29;20710;-75
2022/11/30 17:39:11;;;;;;;34.70;11.60;;;9.20;99.90;;;;;;4880249;29;20313;-75
2022/11/30 17:41:38;;;;;;;31.40;11.30;;;9.20;99.90;;;;;;4880163;29;20282;-76
2022/11/30 17:44:05;;;;;;;40.93;13.57;;;9.10;99.90;;;;;;4879966;29;20211;-75
2022/11/30 17:46:31;;;;;;;32.27;11.53;;;9.10;99.90;;;;;;4879712;29;20282;-76
2022/11/30 17:48:58;;;;;;;37.37;12.07;;;9.00;99.90;;;;;;4879891;29;20215;-76
2022/11/30 17:51:25;;;;;;;32.17;13.07;;;8.90;99.90;;;;;;4880329;29;20246;-75
2022/11/30 17:53:52;;;;;;;33.83;12.17;;;8.80;99.90;;;;;;4879933;29;20681;-76
2022/11/30 17:56:20;;;;;;;34.63;12.43;;;8.70;99.90;;;;;;4879831;29;20590;-75
2022/11/30 17:58:48;;;;;;;31.87;12.73;;;8.50;99.90;;;;;;4879757;29;20207;-76
2022/11/30 18:01:16;;;;;;;32.40;11.90;;;8.30;99.90;;;;;;4879439;29;20302;-76
2022/11/30 18:03:43;;;;;;;33.73;11.77;;;8.30;99.90;;;;;;4879716;29;20222;-76
2022/11/30 18:06:10;;;;;;;38.17;12.80;;;8.20;99.90;;;;;;4879549;29;20283;-76
2022/11/30 18:08:38;;;;;;;33.67;12.17;;;8.20;99.90;;;;;;4879272;29;20207;-76
2022/11/30 18:11:08;;;;;;;31.20;12.63;;;8.20;99.90;;;;;;4879680;29;20738;-77
2022/11/30 18:13:36;;;;;;;35.43;12.27;;;8.10;99.90;;;;;;4879050;29;20220;-76
2022/11/30 18:16:08;;;;;;;31.70;11.93;;;8.10;99.90;;;;;;4879462;29;20595;-75
2022/11/30 18:18:35;;;;;;;33.83;12.67;;;8.00;99.90;;;;;;4879510;29;20211;-76
2022/11/30 18:21:04;;;;;;;32.73;12.30;;;8.00;99.90;;;;;;4879173;29;20239;-76
2022/11/30 18:23:33;;;;;;;28.77;12.63;;;8.00;99.90;;;;;;4879090;29;20692;-76
2022/11/30 18:26:00;;;;;;;35.90;12.43;;;8.00;99.90;;;;;;4879398;29;20258;-76
2022/11/30 18:28:27;;;;;;;31.93;12.53;;;8.10;99.90;;;;;;4879012;29;20570;-76
2022/11/30 18:30:55;;;;;;;34.70;13.60;;;8.20;99.90;;;;;;4879214;29;20667;-76
2022/11/30 18:33:22;;;;;;;35.93;12.87;;;8.20;99.90;;;;;;4879159;29;20211;-76
2022/11/30 18:35:49;;;;;;;34.50;13.43;;;8.20;99.90;;;;;;4879357;29;20235;-77
2022/11/30 18:38:16;;;;;;;33.17;12.93;;;8.30;99.90;;;;;;4879530;29;20659;-76
2022/11/30 18:40:43;;;;;;;33.57;12.90;;;8.50;99.90;;;;;;4879443;29;20239;-76
2022/11/30 18:43:10;;;;;;;35.00;13.37;;;8.60;99.90;;;;;;4879582;29;20306;-76
2022/11/30 18:45:37;;;;;;;37.27;13.27;;;8.50;99.90;;;;;;4879097;29;20354;-76
2022/11/30 18:48:06;;;;;;;33.03;12.30;;;8.40;99.90;;;;;;4879200;29;20294;-76
2022/11/30 18:50:33;;;;;;;35.73;13.60;;;8.30;99.90;;;;;;4879231;29;20674;-77
2022/11/30 18:53:00;;;;;;;31.70;13.20;;;8.10;99.90;;;;;;4879006;29;20654;-77
2022/11/30 18:55:27;;;;;;;30.80;13.43;;;8.10;99.90;;;;;;4879639;29;20234;-76
2022/11/30 18:57:53;;;;;;;32.83;14.37;;;8.10;99.90;;;;;;4879127;29;20762;-76
2022/11/30 19:00:20;;;;;;;31.93;12.70;;;8.00;99.90;;;;;;4880126;29;20211;-76
2022/11/30 19:02:48;;;;;;;35.20;13.17;;;7.90;99.90;;;;;;4879049;29;20207;-76
2022/11/30 19:07:58;;;;;;;36.93;13.47;;;7.50;99.90;;;;;;4879139;29;20228;-76
2022/11/30 19:10:25;;;;;;;33.93;13.13;;;7.50;99.90;;;;;;4879566;29;20314;-76
2022/11/30 19:12:51;;;;;;;33.80;13.27;;;7.40;99.90;;;;;;4879244;29;20207;-76
2022/11/30 19:15:18;;;;;;;37.43;13.97;;;7.40;99.90;;;;;;4878739;29;20674;-76
2022/11/30 19:17:45;;;;;;;38.83;15.90;;;7.30;99.90;;;;;;4878906;29;20231;-76
2022/11/30 19:20:13;;;;;;;41.10;17.27;;;7.10;99.90;;;;;;4878952;29;20226;-76
2022/11/30 19:22:41;;;;;;;32.87;14.10;;;7.10;99.90;;;;;;4878604;29;20250;-75
2022/11/30 19:25:08;;;;;;;37.07;14.27;;;7.30;99.90;;;;;;4879308;29;20302;-76
2022/11/30 19:27:35;;;;;;;31.53;12.73;;;7.40;99.90;;;;;;4882616;29;20242;-76
2022/11/30 19:30:04;;;;;;;37.70;13.43;;;7.50;99.90;;;;;;4882344;29;20219;-76
2022/11/30 19:32:31;;;;;;;31.53;13.07;;;7.60;99.90;;;;;;4882766;29;20226;-76
2022/11/30 19:34:58;;;;;;;38.97;14.23;;;7.40;99.90;;;;;;4882282;29;20218;-76
2022/11/30 19:37:25;;;;;;;36.73;14.43;;;7.10;99.90;;;;;;4882488;29;20231;-76
2022/11/30 19:39:53;;;;;;;32.20;12.23;;;6.90;99.90;;;;;;4882302;29;20296;-76
2022/11/30 19:42:20;;;;;;;33.73;13.70;;;6.90;99.90;;;;;;4882297;29;20239;-76
2022/11/30 19:44:46;;;;;;;34.07;13.00;;;6.90;99.90;;;;;;4882324;29;20218;-76
2022/11/30 19:47:13;;;;;;;34.53;12.37;;;7.00;99.90;;;;;;4881812;29;20711;-76
2022/11/30 19:49:40;;;;;;;33.43;13.27;;;7.00;99.90;;;;;;4881986;29;20211;-76
2022/11/30 19:52:07;;;;;;;28.93;11.87;;;6.90;99.90;;;;;;4882169;29;20207;-76
2022/11/30 19:54:33;;;;;;;32.63;11.97;;;6.80;99.90;;;;;;4882094;29;20305;-76
2022/11/30 19:57:02;;;;;;;30.83;13.07;;;6.70;99.90;;;;;;4881711;29;20237;-75
2022/11/30 19:59:28;;;;;;;32.03;12.03;;;6.60;99.90;;;;;;4882005;29;20211;-76
2022/11/30 20:01:55;;;;;;;28.37;12.10;;;6.70;99.90;;;;;;4881688;29;20238;-76
2022/11/30 20:04:22;;;;;;;33.50;11.83;;;6.70;99.90;;;;;;4881675;29;20211;-75
2022/11/30 20:06:49;;;;;;;31.43;12.63;;;6.80;99.90;;;;;;4882135;29;20571;-75
2022/11/30 20:09:16;;;;;;;31.40;11.93;;;7.00;99.90;;;;;;4881662;29;20210;-75
2022/11/30 20:11:43;;;;;;;27.13;11.17;;;7.10;99.90;;;;;;4881888;29;20219;-76
2022/11/30 20:14:15;;;;;;;30.47;11.50;;;7.10;99.90;;;;;;4881870;29;20210;-76
2022/11/30 20:16:42;;;;;;;29.97;12.47;;;7.20;99.90;;;;;;4881310;29;20231;-76
2022/11/30 20:19:09;;;;;;;29.27;11.50;;;7.20;99.90;;;;;;4881867;29;20298;-75
2022/11/30 20:21:36;;;;;;;27.60;12.23;;;7.20;99.90;;;;;;4881535;29;20710;-76
2022/11/30 20:24:05;;;;;;;25.50;10.63;;;7.10;99.90;;;;;;4881555;29;20211;-75
2022/11/30 20:26:34;;;;;;;24.93;11.17;;;7.20;99.90;;;;;;4881761;29;20238;-75
2022/11/30 20:29:02;;;;;;;25.23;10.90;;;7.30;99.90;;;;;;4881314;29;20662;-76
2022/11/30 20:31:33;;;;;;;27.03;11.27;;;7.40;99.90;;;;;;4881152;29;20218;-77
2022/11/30 20:34:00;;;;;;;23.47;11.10;;;7.50;99.90;;;;;;4881362;29;20215;-77
2022/11/30 20:36:27;;;;;;;24.67;11.17;;;7.60;99.90;;;;;;4881188;29;20319;-75
2022/11/30 20:38:54;;;;;;;26.47;10.47;;;7.50;99.90;;;;;;4880701;29;20631;-76
2022/11/30 20:41:22;;;;;;;22.00;9.73;;;7.50;99.90;;;;;;4881046;29;20235;-75
2022/11/30 20:43:49;;;;;;;24.03;10.23;;;7.60;99.90;;;;;;4880912;29;20316;-75
2022/11/30 20:46:18;;;;;;;22.57;9.43;;;7.50;99.90;;;;;;4880767;29;20231;-76
2022/11/30 20:48:47;;;;;;;24.30;9.63;;;7.50;99.90;;;;;;4880945;29;20579;-75
2022/11/30 20:51:16;;;;;;;22.70;9.37;;;7.60;99.90;;;;;;4881195;29;20306;-75
2022/11/30 20:53:43;;;;;;;28.13;10.23;;;7.60;99.90;;;;;;4881301;29;20219;-75
2022/11/30 20:56:10;;;;;;;21.43;9.23;;;7.50;99.90;;;;;;4880773;29;20269;-75
2022/11/30 20:58:37;;;;;;;20.83;9.87;;;7.40;99.90;;;;;;4880854;29;20211;-75
2022/11/30 21:01:11;;;;;;;21.13;9.47;;;7.40;99.90;;;;;;4880620;29;20563;-75
2022/11/30 21:03:38;;;;;;;20.73;8.93;;;7.40;99.90;;;;;;4881297;29;20211;-75
2022/11/30 21:06:06;;;;;;;19.33;8.93;;;7.40;99.90;;;;;;4880798;29;20235;-75
2022/11/30 21:08:34;;;;;;;18.50;8.70;;;7.20;99.90;;;;;;4880792;29;20617;-75
2022/11/30 21:11:02;;;;;;;23.33;10.37;;;7.10;99.90;;;;;;4880532;29;20221;-75
2022/11/30 21:13:29;;;;;;;19.17;8.83;;;7.00;99.90;;;;;;4880745;29;20215;-76
2022/11/30 21:15:56;;;;;;;17.53;8.50;;;7.10;99.90;;;;;;4880419;29;20591;-76
2022/11/30 21:18:23;;;;;;;21.90;8.97;;;7.00;99.90;;;;;;4880754;29;20219;-77
2022/11/30 21:20:50;;;;;;;23.23;8.23;;;7.00;99.90;;;;;;4880380;29;20550;-76
2022/11/30 21:23:18;;;;;;;22.87;9.67;;;7.00;99.90;;;;;;4880242;29;20213;-75
2022/11/30 21:25:45;;;;;;;18.70;9.00;;;7.00;99.90;;;;;;4880475;29;20238;-75
2022/11/30 21:28:12;;;;;;;17.57;8.47;;;6.80;99.90;;;;;;4880441;29;20238;-75
2022/11/30 21:30:39;;;;;;;18.30;8.77;;;6.70;99.90;;;;;;4880193;29;20219;-75
2022/11/30 21:33:05;;;;;;;15.50;7.63;;;6.90;99.90;;;;;;4880077;29;20226;-75
2022/11/30 21:35:32;;;;;;;20.23;8.37;;;7.00;99.90;;;;;;4880192;29;20215;-75
2022/11/30 21:37:59;;;;;;;18.57;8.23;;;7.30;99.90;;;;;;4880101;29;20211;-75
2022/11/30 21:40:27;;;;;;;19.03;8.17;;;7.20;99.90;;;;;;4880161;29;20217;-75
2022/11/30 21:42:54;;;;;;;18.83;8.60;;;7.20;99.90;;;;;;4880367;29;20246;-75
2022/11/30 21:45:21;;;;;;;19.43;8.43;;;7.00;99.90;;;;;;4880121;29;20212;-76
2022/11/30 21:47:48;;;;;;;18.73;8.23;;;7.20;99.90;;;;;;4880188;29;20321;-75
2022/11/30 21:50:14;;;;;;;21.60;9.13;;;7.30;99.90;;;;;;4880025;29;20215;-75
2022/11/30 21:52:41;;;;;;;18.73;8.20;;;7.20;99.90;;;;;;4879807;29;20221;-75
2022/11/30 21:55:09;;;;;;;17.23;8.83;;;7.30;99.90;;;;;;4880094;29;20631;-75